createdAt,value
2022-10-09T00:01:35.249Z,13.24
2022-10-09T00:06:42.964Z,13.20
2022-10-09T00:11:50.330Z,13.16
2022-10-09T00:16:59.829Z,13.15
2022-10-09T00:22:07.236Z,13.12
2022-10-09T00:27:14.454Z,13.07
2022-10-09T00:32:21.563Z,13.01
2022-10-09T00:37:29.594Z,12.94
2022-10-09T00:42:36.854Z,12.89
2022-10-09T00:47:48.091Z,12.84
2022-10-09T00:53:00.029Z,12.81
2022-10-09T00:58:08.417Z,12.77
2022-10-09T01:03:15.601Z,12.70
2022-10-09T01:08:31.093Z,12.57
2022-10-09T01:13:46.816Z,12.42
2022-10-09T01:19:00.332Z,12.29
2022-10-09T01:24:18.929Z,12.19
2022-10-09T01:29:29.966Z,12.10
2022-10-09T01:34:38.550Z,12.02
2022-10-09T01:39:50.394Z,11.96
2022-10-09T01:44:57.593Z,11.91
2022-10-09T01:50:15.213Z,11.86
2022-10-09T01:55:43.828Z,11.80
2022-10-09T02:00:58.114Z,11.75
2022-10-09T02:06:08.303Z,11.70
2022-10-09T02:11:16.471Z,11.65
2022-10-09T02:16:37.763Z,11.60
2022-10-09T02:21:53.653Z,11.56
2022-10-09T02:27:03.717Z,11.50
2022-10-09T02:32:11.596Z,11.47
2022-10-09T02:37:22.227Z,11.44
2022-10-09T02:42:29.586Z,11.37
2022-10-09T02:47:36.870Z,11.32
2022-10-09T02:52:43.817Z,11.24
2022-10-09T02:57:51.166Z,11.20
2022-10-09T03:02:58.442Z,11.18
2022-10-09T03:08:06.020Z,11.13
2022-10-09T03:13:14.176Z,11.07
2022-10-09T03:18:22.450Z,11.05
2022-10-09T03:23:30.266Z,11.03
2022-10-09T03:28:40.702Z,10.98
2022-10-09T03:33:48.514Z,10.91
2022-10-09T03:38:55.863Z,10.86
2022-10-09T03:44:03.856Z,10.79
2022-10-09T03:49:11.011Z,10.71
2022-10-09T03:54:19.031Z,10.63
2022-10-09T03:59:26.194Z,10.50
2022-10-09T04:04:33.901Z,10.38
2022-10-09T04:09:42.015Z,10.27
2022-10-09T04:14:49.183Z,10.15
2022-10-09T04:19:56.582Z,10.01
2022-10-09T04:25:04.753Z,9.93
2022-10-09T04:30:14.423Z,9.81
2022-10-09T04:35:24.894Z,9.71
2022-10-09T04:40:32.841Z,9.64
2022-10-09T04:45:43.867Z,9.58
2022-10-09T04:50:51.217Z,9.49
2022-10-09T04:55:58.637Z,9.43
2022-10-09T05:01:09.327Z,9.39
2022-10-09T05:06:17.973Z,9.37
2022-10-09T05:11:27.015Z,9.36
2022-10-09T05:16:49.374Z,9.32
2022-10-09T05:22:01.794Z,9.27
2022-10-09T05:27:09.573Z,9.23
2022-10-09T05:32:17.036Z,9.21
2022-10-09T05:37:24.187Z,9.22
2022-10-09T05:42:31.505Z,9.27
2022-10-09T05:47:38.599Z,9.32
2022-10-09T05:52:45.849Z,9.37
2022-10-09T05:57:53.773Z,9.42
2022-10-09T06:03:00.941Z,9.48
2022-10-09T06:08:08.056Z,9.57
2022-10-09T06:13:15.354Z,9.66
2022-10-09T06:18:22.920Z,9.75
2022-10-09T06:23:31.720Z,9.82
2022-10-09T06:28:40.211Z,9.88
2022-10-09T06:33:50.485Z,9.95
2022-10-09T06:39:02.227Z,10.04
2022-10-09T06:44:16.509Z,10.08
2022-10-09T06:49:24.207Z,10.04
2022-10-09T06:54:31.986Z,10.01
2022-10-09T06:59:39.114Z,9.97
2022-10-09T07:04:48.126Z,9.96
2022-10-09T07:09:55.643Z,9.92
2022-10-09T07:15:02.712Z,9.97
2022-10-09T07:20:11.849Z,10.08
2022-10-09T07:25:19.287Z,10.15
2022-10-09T07:30:27.012Z,10.16
2022-10-09T07:35:35.206Z,10.20
2022-10-09T07:40:42.881Z,10.31
2022-10-09T07:45:53.260Z,10.47
2022-10-09T07:51:11.056Z,10.69
2022-10-09T07:56:19.809Z,10.93
2022-10-09T08:01:29.066Z,11.03
2022-10-09T08:06:36.714Z,11.03
2022-10-09T08:11:44.676Z,11.09
2022-10-09T08:16:52.097Z,11.09
2022-10-09T08:22:03.388Z,11.13
2022-10-09T08:27:10.915Z,11.15
2022-10-09T08:32:18.215Z,11.17
2022-10-09T08:37:25.301Z,11.18
2022-10-09T08:42:40.018Z,11.20
2022-10-09T08:47:52.130Z,11.28
2022-10-09T08:53:06.626Z,11.29
2022-10-09T08:58:18.698Z,11.34
2022-10-09T09:03:43.097Z,11.45
2022-10-09T09:08:56.621Z,11.52
2022-10-09T09:14:22.594Z,11.64
2022-10-09T09:19:47.456Z,11.74
2022-10-09T09:24:57.379Z,11.82
2022-10-09T09:30:16.770Z,11.90
2022-10-09T09:35:30.206Z,11.94
2022-10-09T09:40:38.851Z,11.91
2022-10-09T09:45:48.442Z,11.86
2022-10-09T09:51:16.114Z,11.88
2022-10-09T09:57:10.348Z,11.97
2022-10-09T10:02:16.266Z,12.11
2022-10-09T10:07:42.972Z,12.14
2022-10-09T10:12:55.604Z,12.12
2022-10-09T10:18:06.105Z,12.14
2022-10-09T10:23:33.617Z,12.18
2022-10-09T10:28:43.996Z,12.18
2022-10-09T10:33:57.837Z,12.24
2022-10-09T10:39:10.987Z,12.35
2022-10-09T10:44:24.256Z,12.48
2022-10-09T10:49:34.008Z,12.63
2022-10-09T10:54:44.694Z,12.70
2022-10-09T11:00:06.467Z,12.66
2022-10-09T11:05:33.130Z,12.61
2022-10-09T11:10:50.823Z,12.73
2022-10-09T11:16:08.173Z,12.88
2022-10-09T11:21:27.237Z,12.95
2022-10-09T11:26:42.881Z,13.08
2022-10-09T11:31:55.935Z,13.07
2022-10-09T11:37:08.302Z,13.00
2022-10-09T11:42:20.287Z,12.92
2022-10-09T11:47:33.139Z,12.91
2022-10-09T11:52:51.254Z,12.98
2022-10-09T11:58:08.586Z,13.06
2022-10-09T12:03:35.737Z,13.04
2022-10-09T12:08:56.050Z,12.92
2022-10-09T12:14:05.504Z,12.82
2022-10-09T12:19:23.528Z,12.85
2022-10-09T12:24:34.155Z,12.95
2022-10-09T12:29:48.757Z,13.11
2022-10-09T12:34:59.620Z,13.27
2022-10-09T12:40:19.036Z,13.43
2022-10-09T12:45:30.324Z,13.52
2022-10-09T12:50:37.806Z,13.53
2022-10-09T12:55:47.066Z,13.54
2022-10-09T13:00:59.447Z,13.58
2022-10-09T13:06:09.693Z,13.68
2022-10-09T13:11:26.165Z,13.80
2022-10-09T13:16:44.728Z,13.88
2022-10-09T13:22:10.699Z,13.89
2022-10-09T13:27:19.707Z,13.86
2022-10-09T13:32:27.651Z,13.75
2022-10-09T13:37:35.058Z,13.59
2022-10-09T13:42:43.776Z,13.43
2022-10-09T13:47:52.066Z,13.31
2022-10-09T13:53:00.534Z,13.27
2022-10-09T13:58:07.638Z,13.31
2022-10-09T14:03:14.772Z,13.33
2022-10-09T14:08:21.725Z,13.38
2022-10-09T14:13:29.912Z,13.40
2022-10-09T14:18:37.506Z,13.44
2022-10-09T14:23:44.829Z,13.46
2022-10-09T14:28:51.993Z,13.49
2022-10-09T14:34:01.061Z,13.50
2022-10-09T14:39:08.434Z,13.45
2022-10-09T14:44:16.007Z,13.39
2022-10-09T14:49:23.439Z,13.39
2022-10-09T14:54:30.434Z,13.42
2022-10-09T14:59:37.873Z,13.45
2022-10-09T15:04:45.616Z,13.48
2022-10-09T15:09:52.824Z,13.49
2022-10-09T15:15:00.889Z,13.47
2022-10-09T15:20:10.501Z,13.46
2022-10-09T15:25:18.584Z,13.41
2022-10-09T15:30:27.825Z,13.37
2022-10-09T15:35:35.677Z,13.29
2022-10-09T15:40:47.309Z,13.22
2022-10-09T15:46:01.859Z,13.13
2022-10-09T15:51:13.676Z,13.05
2022-10-09T15:56:22.782Z,12.97
2022-10-09T16:01:30.338Z,12.88
2022-10-09T16:06:38.054Z,12.74
2022-10-09T16:11:45.051Z,12.63
2022-10-09T16:16:51.964Z,12.47
2022-10-09T16:21:58.948Z,12.30
2022-10-09T16:27:06.206Z,12.14
2022-10-09T16:32:13.737Z,11.99
2022-10-09T16:37:20.862Z,11.75
2022-10-09T16:42:27.935Z,11.48
2022-10-09T16:47:35.221Z,11.11
2022-10-09T16:52:42.503Z,10.75
2022-10-09T16:57:50.013Z,10.49
2022-10-09T17:02:58.258Z,10.35
2022-10-09T17:08:05.497Z,10.25
2022-10-09T17:13:12.743Z,10.05
2022-10-09T17:18:21.291Z,9.80
2022-10-09T17:23:28.323Z,9.73
2022-10-09T17:28:37.175Z,9.75
2022-10-09T17:33:48.536Z,9.63
2022-10-09T17:38:56.342Z,9.47
2022-10-09T17:44:03.873Z,9.31
2022-10-09T17:49:10.946Z,9.18
2022-10-09T17:54:18.769Z,9.07
2022-10-09T17:59:25.917Z,8.94
2022-10-09T18:04:33.121Z,8.80
2022-10-09T18:09:40.790Z,8.68
2022-10-09T18:14:48.304Z,8.57
2022-10-09T18:19:55.326Z,8.36
2022-10-09T18:25:00.574Z,8.20
2022-10-09T18:30:09.813Z,8.07
2022-10-09T18:35:16.886Z,7.97
2022-10-09T18:40:22.356Z,7.81
2022-10-09T18:45:32.998Z,7.69
2022-10-09T18:50:40.814Z,7.63
2022-10-09T18:55:46.321Z,7.61
2022-10-09T19:00:56.891Z,7.54
2022-10-09T19:06:04.437Z,7.45
2022-10-09T19:11:10.123Z,7.38
2022-10-09T19:16:17.324Z,7.32
2022-10-09T19:21:22.695Z,7.27
2022-10-09T19:26:29.795Z,7.23
2022-10-09T19:31:35.789Z,7.22
2022-10-09T19:36:43.572Z,7.12
2022-10-09T19:41:51.597Z,6.95
2022-10-09T19:46:58.878Z,6.81
2022-10-09T19:52:06.358Z,6.71
2022-10-09T19:57:13.511Z,6.63
2022-10-09T20:02:20.626Z,6.63
2022-10-09T20:07:27.794Z,6.71
2022-10-09T20:12:35.660Z,6.69
2022-10-09T20:17:42.587Z,6.60
2022-10-09T20:22:49.871Z,6.45
2022-10-09T20:27:57.193Z,6.30
2022-10-09T20:33:05.557Z,6.24
2022-10-09T20:38:13.443Z,6.26
2022-10-09T20:43:20.757Z,6.31
2022-10-09T20:48:27.922Z,6.32
2022-10-09T20:53:35.659Z,6.21
2022-10-09T20:58:41.840Z,6.05
2022-10-09T21:03:49.556Z,5.91
2022-10-09T21:08:57.521Z,5.82
2022-10-09T21:14:05.808Z,5.77
2022-10-09T21:19:14.619Z,5.81
2022-10-09T21:24:21.593Z,5.85
2022-10-09T21:29:28.814Z,5.79
2022-10-09T21:34:34.320Z,5.76
2022-10-09T21:39:41.614Z,5.71
2022-10-09T21:44:48.759Z,5.72
2022-10-09T21:49:55.825Z,5.88
2022-10-09T21:55:01.063Z,6.07
2022-10-09T22:00:10.534Z,6.20
2022-10-09T22:05:17.533Z,6.34
2022-10-09T22:10:25.011Z,6.47
2022-10-09T22:15:32.056Z,6.58
2022-10-09T22:20:43.596Z,6.68
2022-10-09T22:26:00.946Z,6.73
2022-10-09T22:31:10.530Z,6.80
2022-10-09T22:36:19.207Z,6.83
2022-10-09T22:41:27.031Z,6.87
2022-10-09T22:46:36.117Z,6.91
2022-10-09T22:51:43.832Z,6.94
2022-10-09T22:56:51.749Z,6.93
2022-10-09T23:02:00.815Z,6.89
2022-10-09T23:07:08.205Z,6.84
2022-10-09T23:12:15.167Z,6.81
2022-10-09T23:17:22.360Z,6.81
2022-10-09T23:22:27.663Z,6.75
2022-10-09T23:27:34.762Z,6.68
2022-10-09T23:32:41.841Z,6.64
2022-10-09T23:37:48.963Z,6.53
2022-10-09T23:42:54.389Z,6.36
2022-10-09T23:48:01.490Z,6.31
2022-10-09T23:53:08.795Z,6.33
2022-10-09T23:58:20.688Z,6.33
